Time;durP1;ratioP1;P1;durP2;ratioP2;P2;SDS_P1;SDS_P2;PMS_P1;PMS_P2;Temp;Humidity;BMP_temperature;BMP_pressure;BME280_temperature;BME280_humidity;BME280_pressure;Samples;Min_cycle;Max_cycle;Signal;HPM_P1;HPM_P2
2023/09/24 00:01:38;;;;;;;5.72;2.22;;;;;;;;;;5101934;28;20055;-76
2023/09/24 00:04:10;;;;;;;8.82;3.25;;;;;;;;;;5102364;28;20039;-74
2023/09/24 00:06:40;;;;;;;8.18;3.53;;;;;;;;;;5102335;28;20055;-74
2023/09/24 00:09:12;;;;;;;6.88;2.47;;;;;;;;;;5093653;28;20056;-74
2023/09/24 00:11:44;;;;;;;11.05;2.38;;;;;;;;;;5090848;28;20646;-74
2023/09/24 00:14:15;;;;;;;7.80;2.63;;;;;;;;;;5092143;28;20047;-74
2023/09/24 00:16:47;;;;;;;3.97;2.65;;;;;;;;;;5092455;28;20039;-73
2023/09/24 00:19:17;;;;;;;5.03;2.55;;;;;;;;;;5091446;28;20052;-74
2023/09/24 00:21:49;;;;;;;7.15;3.13;;;;;;;;;;5090457;28;20507;-74
2023/09/24 00:24:19;;;;;;;5.75;2.42;;;;;;;;;;5090025;28;20044;-75
2023/09/24 00:26:49;;;;;;;9.98;2.70;;;;;;;;;;5092388;28;20047;-75
2023/09/24 00:29:19;;;;;;;16.35;3.15;;;;;;;;;;5091468;28;20040;-74
2023/09/24 00:31:50;;;;;;;4.25;2.50;;;;;;;;;;5092762;28;20047;-75
2023/09/24 00:34:21;;;;;;;7.70;2.60;;;;;;;;;;5092271;28;20048;-74
2023/09/24 00:36:50;;;;;;;9.95;2.83;;;;;;;;;;5068780;28;20052;-74
2023/09/24 00:39:21;;;;;;;4.75;2.67;;;;;;;;;;5084002;28;20639;-78
2023/09/24 00:41:51;;;;;;;10.38;2.65;;;;;;;;;;5089775;28;20450;-75
2023/09/24 00:44:23;;;;;;;10.07;2.83;;;;;;;;;;5106836;28;20043;-74
2023/09/24 00:46:55;;;;;;;3.58;2.28;;;;;;;;;;5092565;28;20039;-74
2023/09/24 00:49:29;;;;;;;8.75;2.67;;;;;;;;;;5092773;28;20044;-75
2023/09/24 00:52:00;;;;;;;4.63;2.30;;;;;;;;;;5095190;28;20043;-75
2023/09/24 00:54:31;;;;;;;11.85;2.67;;;;;;;;;;5098345;28;20414;-75
2023/09/24 00:57:01;;;;;;;8.27;2.65;;;;;;;;;;5099518;28;20043;-75
2023/09/24 00:59:31;;;;;;;7.22;2.90;;;;;;;;;;5097118;28;20071;-74
2023/09/24 01:02:02;;;;;;;8.77;2.65;;;;;;;;;;5071585;28;20059;-75
2023/09/24 01:04:35;;;;;;;9.00;2.75;;;;;;;;;;5090003;28;20044;-74
2023/09/24 01:07:06;;;;;;;8.27;2.17;;;;;;;;;;5090662;28;20054;-75
2023/09/24 01:09:37;;;;;;;7.00;2.58;;;;;;;;;;5078737;28;20063;-74
2023/09/24 01:12:22;;;;;;;8.68;2.65;;;;;;;;;;5081823;28;20052;-74
2023/09/24 01:14:54;;;;;;;6.68;2.95;;;;;;;;;;5081940;28;20059;-74
2023/09/24 01:17:26;;;;;;;9.15;2.88;;;;;;;;;;5101921;28;20044;-74
2023/09/24 01:19:57;;;;;;;10.73;2.92;;;;;;;;;;5102055;28;20039;-74
2023/09/24 01:22:29;;;;;;;11.27;3.13;;;;;;;;;;5101778;28;20059;-74
2023/09/24 01:25:00;;;;;;;7.57;2.67;;;;;;;;;;5116502;28;20059;-75
2023/09/24 01:27:35;;;;;;;5.75;2.67;;;;;;;;;;5104986;28;20047;-74
2023/09/24 01:30:06;;;;;;;7.40;2.55;;;;;;;;;;5104409;28;20938;-74
2023/09/24 01:32:36;;;;;;;11.98;2.70;;;;;;;;;;5100651;27;20052;-75
2023/09/24 01:35:08;;;;;;;3.72;2.65;;;;;;;;;;5104262;28;20414;-74
2023/09/24 01:37:40;;;;;;;5.47;2.42;;;;;;;;;;5105244;28;20047;-74
2023/09/24 01:40:18;;;;;;;7.47;2.22;;;;;;;;;;5104904;28;20047;-75
2023/09/24 01:42:48;;;;;;;8.45;2.75;;;;;;;;;;5085642;28;20063;-74
2023/09/24 01:45:19;;;;;;;8.27;2.85;;;;;;;;;;5104829;28;20050;-74
2023/09/24 01:47:51;;;;;;;10.30;2.53;;;;;;;;;;5120328;27;20410;-75
2023/09/24 01:50:26;;;;;;;6.50;2.95;;;;;;;;;;5104592;28;20074;-75
2023/09/24 01:53:00;;;;;;;;;;;;;;;;;;5086143;28;20043;-75
2023/09/24 01:55:31;;;;;;;6.30;2.42;;;;;;;;;;5086684;28;19923;-74
2023/09/24 01:58:03;;;;;;;11.88;3.35;;;;;;;;;;5104154;28;20054;-74
2023/09/24 02:00:33;;;;;;;10.90;3.20;;;;;;;;;;5085013;28;20395;-74
2023/09/24 02:03:10;;;;;;;6.25;2.60;;;;;;;;;;5105121;28;20063;-77
2023/09/24 02:05:44;;;;;;;11.93;3.47;;;;;;;;;;5119608;27;20043;-74
2023/09/24 02:08:15;;;;;;;6.18;2.90;;;;;;;;;;5119803;27;20455;-74
2023/09/24 02:10:45;;;;;;;14.38;3.15;;;;;;;;;;5104866;28;20505;-74
2023/09/24 02:13:16;;;;;;;14.52;2.83;;;;;;;;;;5085653;28;20048;-74
2023/09/24 02:15:49;;;;;;;6.55;2.47;;;;;;;;;;5104859;28;20052;-75
2023/09/24 02:18:22;;;;;;;22.13;3.15;;;;;;;;;;5104666;28;20044;-74
2023/09/24 02:20:54;;;;;;;6.15;2.42;;;;;;;;;;5084162;28;20069;-74
2023/09/24 02:23:25;;;;;;;6.45;2.53;;;;;;;;;;5084699;28;20529;-73
2023/09/24 02:25:56;;;;;;;4.53;2.70;;;;;;;;;;5104675;28;20047;-74
2023/09/24 02:28:27;;;;;;;5.95;2.83;;;;;;;;;;5085325;28;20055;-74
2023/09/24 02:30:57;;;;;;;8.35;2.95;;;;;;;;;;5086151;28;20048;-74
2023/09/24 02:33:27;;;;;;;4.78;2.92;;;;;;;;;;5103997;28;20043;-74
2023/09/24 02:35:58;;;;;;;12.95;2.80;;;;;;;;;;5103909;28;20043;-73
2023/09/24 02:38:29;;;;;;;6.43;2.83;;;;;;;;;;5102347;28;20063;-74
2023/09/24 02:40:59;;;;;;;9.15;3.03;;;;;;;;;;5103980;28;20043;-74
2023/09/24 02:43:32;;;;;;;7.55;2.63;;;;;;;;;;5085700;28;20473;-74
2023/09/24 02:46:06;;;;;;;11.10;2.85;;;;;;;;;;5104582;28;20082;-74
2023/09/24 02:48:38;;;;;;;10.35;2.83;;;;;;;;;;5084380;28;20039;-74
2023/09/24 02:51:10;;;;;;;8.25;2.83;;;;;;;;;;5103884;28;20047;-74
2023/09/24 02:53:41;;;;;;;11.73;2.58;;;;;;;;;;5103254;28;20490;-74
2023/09/24 02:56:13;;;;;;;6.65;2.67;;;;;;;;;;5103368;28;20047;-74
2023/09/24 02:58:44;;;;;;;7.97;2.65;;;;;;;;;;5103230;28;20039;-74
2023/09/24 03:01:16;;;;;;;8.73;3.00;;;;;;;;;;5085227;28;20430;-74
2023/09/24 03:03:46;;;;;;;18.63;2.92;;;;;;;;;;5085050;28;20047;-74
2023/09/24 03:06:17;;;;;;;6.97;3.00;;;;;;;;;;5084022;28;20056;-77
2023/09/24 03:08:53;;;;;;;10.60;2.55;;;;;;;;;;5102434;28;20052;-74
2023/09/24 03:11:24;;;;;;;16.00;2.63;;;;;;;;;;5103819;28;20054;-74
2023/09/24 03:13:54;;;;;;;9.23;2.90;;;;;;;;;;5103834;28;20051;-74
2023/09/24 03:16:26;;;;;;;8.05;2.90;;;;;;;;;;5084672;28;20165;-74
2023/09/24 03:18:59;;;;;;;10.45;2.97;;;;;;;;;;5118586;27;20052;-76
2023/09/24 03:21:32;;;;;;;11.70;2.97;;;;;;;;;;5103561;28;20051;-74
2023/09/24 03:24:02;;;;;;;14.60;2.83;;;;;;;;;;5103274;28;20075;-74
2023/09/24 03:26:32;;;;;;;6.60;2.53;;;;;;;;;;5103248;28;20075;-74
2023/09/24 03:29:04;;;;;;;35.92;3.20;;;;;;;;;;5083846;28;20478;-74
2023/09/24 03:31:34;;;;;;;7.65;2.60;;;;;;;;;;5103313;28;20044;-74
2023/09/24 03:34:05;;;;;;;7.40;2.63;;;;;;;;;;5102921;28;20417;-74
2023/09/24 03:36:35;;;;;;;7.47;2.70;;;;;;;;;;5102897;28;20494;-74
2023/09/24 03:39:09;;;;;;;6.47;3.10;;;;;;;;;;5103414;28;20043;-77
2023/09/24 03:41:40;;;;;;;7.10;3.30;;;;;;;;;;5118075;27;20061;-74
2023/09/24 03:44:11;;;;;;;9.35;3.17;;;;;;;;;;5083316;28;20552;-74
2023/09/24 03:46:41;;;;;;;15.85;2.72;;;;;;;;;;5084413;28;20062;-74
2023/09/24 03:49:12;;;;;;;8.93;2.72;;;;;;;;;;5084209;28;20062;-74
2023/09/24 03:51:44;;;;;;;7.80;2.55;;;;;;;;;;5117850;27;20052;-74
2023/09/24 03:54:15;;;;;;;3.28;2.30;;;;;;;;;;5102492;28;20061;-74
2023/09/24 03:56:45;;;;;;;6.47;2.42;;;;;;;;;;5102377;28;20062;-74
2023/09/24 03:59:15;;;;;;;12.18;3.33;;;;;;;;;;5103303;28;20070;-74
2023/09/24 04:01:46;;;;;;;9.55;3.13;;;;;;;;;;5102908;28;20047;-74
2023/09/24 04:04:19;;;;;;;5.72;3.03;;;;;;;;;;5102722;28;20055;-74
2023/09/24 04:06:49;;;;;;;6.07;3.03;;;;;;;;;;5102732;28;20403;-74
2023/09/24 04:09:20;;;;;;;11.82;2.95;;;;;;;;;;5102149;28;20058;-74
2023/09/24 04:11:50;;;;;;;12.30;3.35;;;;;;;;;;5102418;28;20509;-74
2023/09/24 04:14:20;;;;;;;9.75;2.85;;;;;;;;;;5102466;28;20055;-74
2023/09/24 04:16:51;;;;;;;8.25;3.20;;;;;;;;;;5103122;28;20061;-74
2023/09/24 04:19:21;;;;;;;8.65;3.10;;;;;;;;;;5083316;28;20040;-74
2023/09/24 04:21:58;;;;;;;5.13;2.83;;;;;;;;;;5102334;28;20050;-74
2023/09/24 04:24:29;;;;;;;4.25;2.53;;;;;;;;;;5083677;28;20059;-74
2023/09/24 04:27:00;;;;;;;6.93;3.47;;;;;;;;;;5102418;28;20047;-74
2023/09/24 04:29:31;;;;;;;7.63;3.92;;;;;;;;;;5102172;28;20048;-74
2023/09/24 04:32:00;;;;;;;10.40;3.70;;;;;;;;;;5084084;28;20561;-74
2023/09/24 04:34:31;;;;;;;7.45;3.47;;;;;;;;;;5102246;28;20051;-74
2023/09/24 04:37:01;;;;;;;8.85;2.70;;;;;;;;;;5102485;28;20058;-74
2023/09/24 04:39:32;;;;;;;11.82;3.38;;;;;;;;;;5102537;28;20047;-74
2023/09/24 04:42:02;;;;;;;13.60;5.32;;;;;;;;;;5102460;28;20075;-74
2023/09/24 04:44:33;;;;;;;19.02;4.45;;;;;;;;;;5101396;28;20047;-74
2023/09/24 04:47:05;;;;;;;13.05;3.95;;;;;;;;;;5102281;28;20055;-77
2023/09/24 04:49:36;;;;;;;10.55;3.40;;;;;;;;;;5101986;28;20063;-74
2023/09/24 04:52:06;;;;;;;8.80;3.22;;;;;;;;;;5101917;28;20040;-74
2023/09/24 04:54:36;;;;;;;10.10;3.97;;;;;;;;;;5102056;28;20521;-74
2023/09/24 04:57:07;;;;;;;7.57;3.40;;;;;;;;;;5101510;28;20054;-74
2023/09/24 04:59:39;;;;;;;9.48;3.67;;;;;;;;;;5101709;28;20052;-74
2023/09/24 05:02:11;;;;;;;7.43;4.10;;;;;;;;;;5104695;28;20600;-73
2023/09/24 05:04:43;;;;;;;7.30;4.10;;;;;;;;;;5105892;28;20051;-75
2023/09/24 05:07:14;;;;;;;7.00;3.97;;;;;;;;;;5106159;28;20061;-74
2023/09/24 05:09:45;;;;;;;8.35;4.53;;;;;;;;;;5106264;28;20040;-74
2023/09/24 05:12:16;;;;;;;9.73;5.22;;;;;;;;;;5106062;28;20833;-74
2023/09/24 05:14:46;;;;;;;11.25;4.18;;;;;;;;;;5086614;28;20529;-73
2023/09/24 05:17:16;;;;;;;9.48;4.95;;;;;;;;;;5106115;28;20585;-74
2023/09/24 05:19:47;;;;;;;8.88;4.18;;;;;;;;;;5106189;28;20534;-74
2023/09/24 05:22:19;;;;;;;9.50;4.22;;;;;;;;;;5086372;28;20063;-74
2023/09/24 05:24:49;;;;;;;7.53;3.58;;;;;;;;;;5105534;28;20051;-73
2023/09/24 05:27:19;;;;;;;8.43;3.53;;;;;;;;;;5105561;28;20050;-74
2023/09/24 05:29:50;;;;;;;6.10;3.47;;;;;;;;;;5105512;28;20055;-74
2023/09/24 05:32:21;;;;;;;5.25;3.72;;;;;;;;;;5105255;28;20529;-73
2023/09/24 05:34:54;;;;;;;5.32;3.30;;;;;;;;;;5105007;28;20058;-74
2023/09/24 05:37:24;;;;;;;8.02;3.53;;;;;;;;;;5105520;28;20047;-74
2023/09/24 05:39:54;;;;;;;7.57;3.53;;;;;;;;;;5104959;28;20052;-74
2023/09/24 05:42:24;;;;;;;7.07;3.25;;;;;;;;;;5104896;28;20079;-74
2023/09/24 05:44:55;;;;;;;10.27;3.40;;;;;;;;;;5086550;28;20048;-74
2023/09/24 05:47:27;;;;;;;17.02;3.38;;;;;;;;;;5105516;28;20050;-74
2023/09/24 05:50:03;;;;;;;6.55;3.53;;;;;;;;;;5105167;28;20062;-74
2023/09/24 05:52:33;;;;;;;;;;;;;;;;;;5086278;28;20055;-74
2023/09/24 05:55:04;;;;;;;13.88;3.45;;;;;;;;;;5104743;28;19923;-74
2023/09/24 05:57:35;;;;;;;17.45;4.15;;;;;;;;;;5104898;28;20052;-74
2023/09/24 06:00:08;;;;;;;9.10;4.07;;;;;;;;;;5104955;28;20410;-74
2023/09/24 06:02:42;;;;;;;9.32;4.20;;;;;;;;;;5105148;28;20527;-74
2023/09/24 06:05:12;;;;;;;13.25;4.22;;;;;;;;;;5104882;28;20345;-74
2023/09/24 06:07:43;;;;;;;11.40;3.92;;;;;;;;;;5104257;28;20085;-74
2023/09/24 06:10:12;;;;;;;7.78;3.83;;;;;;;;;;5086127;28;20524;-74
2023/09/24 06:12:42;;;;;;;10.27;3.70;;;;;;;;;;5104684;28;20040;-74
2023/09/24 06:15:13;;;;;;;13.55;4.43;;;;;;;;;;5104202;28;20050;-74
2023/09/24 06:17:46;;;;;;;12.48;3.60;;;;;;;;;;5104446;28;20529;-74
2023/09/24 06:20:17;;;;;;;9.32;3.80;;;;;;;;;;5104361;28;20050;-74
2023/09/24 06:22:53;;;;;;;14.57;3.78;;;;;;;;;;5103900;28;20048;-74
2023/09/24 06:25:24;;;;;;;8.18;3.65;;;;;;;;;;5104453;28;20043;-74
2023/09/24 06:27:54;;;;;;;5.85;3.30;;;;;;;;;;5104088;28;20043;-74
2023/09/24 06:30:26;;;;;;;8.38;3.42;;;;;;;;;;5104445;28;20040;-74
2023/09/24 06:32:58;;;;;;;7.70;3.55;;;;;;;;;;5103965;28;20410;-73
2023/09/24 06:35:29;;;;;;;7.80;4.00;;;;;;;;;;5104614;28;20035;-74
2023/09/24 06:37:59;;;;;;;13.93;3.63;;;;;;;;;;5084803;28;20051;-74
2023/09/24 06:40:30;;;;;;;8.43;3.53;;;;;;;;;;5103346;28;20414;-73
2023/09/24 06:43:00;;;;;;;11.18;3.67;;;;;;;;;;5103544;28;20051;-74
2023/09/24 06:45:30;;;;;;;5.93;3.53;;;;;;;;;;5103420;28;20054;-74
2023/09/24 06:48:01;;;;;;;13.98;3.53;;;;;;;;;;5104243;28;20829;-73
2023/09/24 06:50:34;;;;;;;10.23;3.55;;;;;;;;;;5103974;28;20047;-74
2023/09/24 06:53:06;;;;;;;46.88;4.15;;;;;;;;;;5103333;28;20043;-73
2023/09/24 06:55:39;;;;;;;5.13;3.25;;;;;;;;;;5103345;28;20430;-73
2023/09/24 06:58:09;;;;;;;14.32;3.05;;;;;;;;;;5103654;28;20054;-73
2023/09/24 07:00:40;;;;;;;18.60;3.38;;;;;;;;;;5084696;28;20059;-74
2023/09/24 07:03:11;;;;;;;9.65;3.22;;;;;;;;;;5103509;28;20058;-74
2023/09/24 07:05:42;;;;;;;10.00;3.00;;;;;;;;;;5103899;28;20346;-74
2023/09/24 07:08:13;;;;;;;9.32;3.03;;;;;;;;;;5103586;28;20058;-74
2023/09/24 07:10:44;;;;;;;13.23;3.08;;;;;;;;;;5103881;28;20051;-73
2023/09/24 07:13:16;;;;;;;5.38;3.60;;;;;;;;;;5103428;28;20059;-74
2023/09/24 07:15:46;;;;;;;10.38;3.15;;;;;;;;;;5103167;28;20044;-73
2023/09/24 07:18:18;;;;;;;5.47;2.97;;;;;;;;;;5103387;28;20048;-73
2023/09/24 07:20:49;;;;;;;5.53;2.63;;;;;;;;;;5102895;28;20039;-73
2023/09/24 07:23:20;;;;;;;9.23;3.10;;;;;;;;;;5085020;28;20056;-73
2023/09/24 07:25:50;;;;;;;5.40;2.95;;;;;;;;;;5102767;28;20506;-73
2023/09/24 07:28:24;;;;;;;6.57;3.80;;;;;;;;;;5103024;28;20047;-73
2023/09/24 07:30:55;;;;;;;4.85;3.17;;;;;;;;;;5102680;28;20048;-74
2023/09/24 07:33:26;;;;;;;8.40;3.53;;;;;;;;;;5103147;28;20047;-74
2023/09/24 07:35:57;;;;;;;8.25;3.38;;;;;;;;;;5118422;27;20518;-73
2023/09/24 07:38:27;;;;;;;6.40;3.45;;;;;;;;;;5085523;28;20044;-73
2023/09/24 07:40:57;;;;;;;7.80;4.38;;;;;;;;;;5103148;28;20861;-74
2023/09/24 07:43:28;;;;;;;5.63;3.22;;;;;;;;;;5102454;28;20059;-74
2023/09/24 07:45:58;;;;;;;7.70;4.13;;;;;;;;;;5103570;28;20421;-74
2023/09/24 07:48:28;;;;;;;8.38;4.53;;;;;;;;;;5103695;28;20047;-73
2023/09/24 07:50:59;;;;;;;14.25;5.03;;;;;;;;;;5102852;28;20508;-74
2023/09/24 07:53:30;;;;;;;16.17;4.50;;;;;;;;;;5102748;28;20044;-73
2023/09/24 07:56:06;;;;;;;6.43;4.63;;;;;;;;;;5102634;28;20528;-73
2023/09/24 07:58:38;;;;;;;8.25;4.85;;;;;;;;;;5102676;28;20048;-73
2023/09/24 08:01:13;;;;;;;9.15;4.50;;;;;;;;;;5103166;28;20055;-74
2023/09/24 08:03:47;;;;;;;15.60;5.07;;;;;;;;;;5102632;28;20422;-73
2023/09/24 08:06:18;;;;;;;13.25;5.00;;;;;;;;;;5102274;28;20061;-80
2023/09/24 08:08:48;;;;;;;13.43;4.97;;;;;;;;;;5102146;28;20035;-73
2023/09/24 08:11:33;;;;;;;10.02;5.38;;;;;;;;;;5102881;28;20502;-73
2023/09/24 08:14:04;;;;;;;13.00;5.30;;;;;;;;;;5102345;28;20092;-73
2023/09/24 08:16:35;;;;;;;14.63;4.95;;;;;;;;;;5102391;28;20058;-73
2023/09/24 08:19:06;;;;;;;11.60;5.72;;;;;;;;;;5102408;28;20066;-73
2023/09/24 08:21:36;;;;;;;13.32;5.78;;;;;;;;;;5102331;28;20047;-73
2023/09/24 08:24:08;;;;;;;14.00;5.95;;;;;;;;;;5102500;28;20122;-73
2023/09/24 08:26:38;;;;;;;11.82;5.55;;;;;;;;;;5102972;28;20050;-74
2023/09/24 08:29:09;;;;;;;9.13;5.35;;;;;;;;;;5102615;28;20047;-74
2023/09/24 08:31:39;;;;;;;11.32;5.28;;;;;;;;;;5083069;28;20056;-73
2023/09/24 08:34:10;;;;;;;15.23;5.63;;;;;;;;;;5102534;28;20493;-73
2023/09/24 08:36:41;;;;;;;14.68;6.03;;;;;;;;;;5104208;28;20044;-73
2023/09/24 08:39:14;;;;;;;14.05;5.32;;;;;;;;;;5106609;28;20047;-74
2023/09/24 08:41:45;;;;;;;12.05;5.90;;;;;;;;;;5106253;28;20054;-73
2023/09/24 08:44:17;;;;;;;11.57;6.53;;;;;;;;;;5105668;28;20051;-73
2023/09/24 08:46:50;;;;;;;10.43;6.30;;;;;;;;;;5106435;28;20506;-73
2023/09/24 08:49:21;;;;;;;14.57;5.45;;;;;;;;;;5106107;28;20048;-74
2023/09/24 08:51:52;;;;;;;11.88;5.90;;;;;;;;;;5105950;28;20048;-73
2023/09/24 08:54:22;;;;;;;8.82;5.60;;;;;;;;;;5105693;28;20043;-73
2023/09/24 08:56:53;;;;;;;10.93;5.47;;;;;;;;;;5106413;28;20039;-73
2023/09/24 08:59:23;;;;;;;10.88;6.00;;;;;;;;;;5106875;28;20055;-74
2023/09/24 09:01:54;;;;;;;12.23;5.85;;;;;;;;;;5106395;28;20055;-74
2023/09/24 09:04:24;;;;;;;9.93;6.05;;;;;;;;;;5086798;28;20051;-73
2023/09/24 09:06:57;;;;;;;8.98;5.75;;;;;;;;;;5106051;28;20406;-74
2023/09/24 09:09:30;;;;;;;9.82;5.60;;;;;;;;;;5105683;28;20047;-73
2023/09/24 09:12:00;;;;;;;11.75;5.40;;;;;;;;;;5106107;28;20043;-73
2023/09/24 09:14:37;;;;;;;16.48;5.68;;;;;;;;;;5105968;28;20509;-74
2023/09/24 09:17:07;;;;;;;9.18;5.20;;;;;;;;;;5105885;28;20510;-73
2023/09/24 09:19:56;;;;;;;11.05;5.00;;;;;;;;;;5106379;28;20063;-73
2023/09/24 09:22:27;;;;;;;13.75;6.05;;;;;;;;;;5105705;28;20414;-73
2023/09/24 09:25:06;;;;;;;11.52;6.63;;;;;;;;;;5104843;28;20082;-74
2023/09/24 09:27:43;;;;;;;22.40;9.32;;;;;;;;;;5105192;28;20593;-74
2023/09/24 09:30:19;;;;;;;12.30;6.88;;;;;;;;;;5105973;28;20055;-73
2023/09/24 09:32:50;;;;;;;12.93;6.88;;;;;;;;;;5105801;28;20050;-75
2023/09/24 09:35:19;;;;;;;12.68;6.32;;;;;;;;;;5087595;28;20055;-73
2023/09/24 09:37:54;;;;;;;10.93;6.93;;;;;;;;;;5087236;28;20048;-73
2023/09/24 09:40:24;;;;;;;11.80;6.40;;;;;;;;;;5104794;28;20073;-73
2023/09/24 09:42:56;;;;;;;11.45;7.10;;;;;;;;;;5105612;28;20043;-73
2023/09/24 09:45:26;;;;;;;8.65;5.95;;;;;;;;;;5105336;28;20052;-73
2023/09/24 09:48:03;;;;;;;12.35;5.40;;;;;;;;;;5104692;28;20047;-74
2023/09/24 09:50:43;;;;;;;9.80;4.45;;;;;;;;;;5105104;28;20054;-73
2023/09/24 09:53:19;;;;;;;9.05;4.70;;;;;;;;;;5104486;28;20055;-73
2023/09/24 09:55:52;;;;;;;6.38;4.30;;;;;;;;;;5104859;28;20059;-73
2023/09/24 09:58:26;;;;;;;5.90;3.60;;;;;;;;;;5105037;28;20050;-73
2023/09/24 10:01:00;;;;;;;5.45;4.03;;;;;;;;;;5104871;28;20043;-74
2023/09/24 10:03:39;;;;;;;6.03;3.40;;;;;;;;;;5104890;28;20039;-74
2023/09/24 10:06:10;;;;;;;6.05;3.65;;;;;;;;;;5104590;28;20051;-74
2023/09/24 10:08:43;;;;;;;8.65;3.33;;;;;;;;;;5086049;28;20048;-73
2023/09/24 10:11:32;;;;;;;4.13;2.90;;;;;;;;;;5104981;28;20394;-74
2023/09/24 10:14:05;;;;;;;4.53;2.33;;;;;;;;;;5105375;28;20383;-73
2023/09/24 10:16:38;;;;;;;3.28;2.53;;;;;;;;;;5105193;28;20047;-74
2023/09/24 10:19:13;;;;;;;5.20;2.90;;;;;;;;;;5105025;28;20053;-73
2023/09/24 10:21:45;;;;;;;3.88;2.83;;;;;;;;;;5105264;28;20039;-73
2023/09/24 10:24:15;;;;;;;5.35;2.60;;;;;;;;;;5104229;28;20063;-73
2023/09/24 10:27:03;;;;;;;5.55;2.38;;;;;;;;;;5104484;28;20529;-73
2023/09/24 10:29:50;;;;;;;3.55;2.28;;;;;;;;;;5104059;28;20043;-73
2023/09/24 10:32:22;;;;;;;9.07;2.45;;;;;;;;;;5104296;28;20043;-73
2023/09/24 10:34:55;;;;;;;3.70;2.13;;;;;;;;;;5104224;28;20040;-73
2023/09/24 10:37:26;;;;;;;4.25;2.53;;;;;;;;;;5104101;28;20058;-73
2023/09/24 10:42:38;;;;;;;5.32;2.30;;;;;;;;;;5104501;28;20051;-74
2023/09/24 10:45:08;;;;;;;5.28;2.20;;;;;;;;;;5103564;28;20417;-73
2023/09/24 10:47:45;;;;;;;3.25;2.13;;;;;;;;;;5104007;28;20043;-74
2023/09/24 10:50:23;;;;;;;4.55;2.15;;;;;;;;;;5104401;28;20536;-74
2023/09/24 10:53:02;;;;;;;3.25;1.95;;;;;;;;;;5103931;28;20050;-73
2023/09/24 10:55:34;;;;;;;3.72;2.28;;;;;;;;;;5104488;28;20043;-74
2023/09/24 10:58:15;;;;;;;3.75;2.22;;;;;;;;;;5103481;28;20040;-73
2023/09/24 11:00:52;;;;;;;4.88;2.58;;;;;;;;;;5103973;28;20046;-73
2023/09/24 11:03:22;;;;;;;3.85;2.42;;;;;;;;;;5103591;28;20047;-73
2023/09/24 11:05:54;;;;;;;4.35;2.40;;;;;;;;;;5103434;28;20054;-74
2023/09/24 11:08:28;;;;;;;4.50;2.25;;;;;;;;;;5104216;28;20043;-80
2023/09/24 11:10:59;;;;;;;4.07;2.38;;;;;;;;;;5103466;28;20063;-73
2023/09/24 11:13:30;;;;;;;5.95;2.88;;;;;;;;;;5104943;28;20039;-74
2023/09/24 11:16:03;;;;;;;2.95;1.92;;;;;;;;;;5102961;28;20040;-74
2023/09/24 11:18:33;;;;;;;2.85;1.95;;;;;;;;;;5103091;28;20063;-73
2023/09/24 11:21:05;;;;;;;6.18;4.10;;;;;;;;;;5102996;28;20055;-74
2023/09/24 11:23:37;;;;;;;4.25;1.92;;;;;;;;;;5103266;28;20069;-73
2023/09/24 11:26:09;;;;;;;3.20;2.05;;;;;;;;;;5103754;28;20043;-74
2023/09/24 11:28:39;;;;;;;6.53;1.95;;;;;;;;;;5118516;27;20055;-74
2023/09/24 11:31:10;;;;;;;3.05;1.83;;;;;;;;;;5103005;28;20047;-74
2023/09/24 11:33:41;;;;;;;7.13;2.25;;;;;;;;;;5103264;28;20414;-75
2023/09/24 11:36:17;;;;;;;14.65;3.17;;;;;;;;;;5103638;28;20052;-74
2023/09/24 11:38:47;;;;;;;6.32;1.70;;;;;;;;;;5103294;28;20051;-75
2023/09/24 11:41:21;;;;;;;3.58;1.77;;;;;;;;;;5102276;28;20059;-74
2023/09/24 11:43:57;;;;;;;4.95;2.30;;;;;;;;;;5103266;28;20054;-74
2023/09/24 11:46:28;;;;;;;3.67;1.63;;;;;;;;;;5118348;27;20055;-74
2023/09/24 11:48:59;;;;;;;2.65;1.90;;;;;;;;;;5103366;28;20047;-74
2023/09/24 11:51:30;;;;;;;4.82;1.73;;;;;;;;;;5102532;28;20048;-74
2023/09/24 11:54:02;;;;;;;4.43;1.80;;;;;;;;;;5102541;28;20051;-74
2023/09/24 11:56:33;;;;;;;6.40;2.03;;;;;;;;;;5102627;28;20043;-74
2023/09/24 11:59:02;;;;;;;2.80;1.63;;;;;;;;;;5102259;28;20055;-75
2023/09/24 12:01:33;;;;;;;4.03;1.50;;;;;;;;;;5102285;28;20075;-74
2023/09/24 12:04:03;;;;;;;4.07;1.70;;;;;;;;;;5102307;28;20541;-74
2023/09/24 12:06:35;;;;;;;2.85;1.55;;;;;;;;;;5102644;28;20070;-74
2023/09/24 12:09:05;;;;;;;3.22;1.48;;;;;;;;;;5103277;28;20042;-74
2023/09/24 12:11:36;;;;;;;3.72;1.60;;;;;;;;;;5102736;28;20074;-74
2023/09/24 12:14:07;;;;;;;6.40;1.55;;;;;;;;;;5102770;28;20035;-74
2023/09/24 12:16:38;;;;;;;9.98;1.73;;;;;;;;;;5102207;28;20059;-74
2023/09/24 12:19:08;;;;;;;3.22;1.48;;;;;;;;;;5103361;28;20048;-73
2023/09/24 12:21:39;;;;;;;2.35;1.63;;;;;;;;;;5101423;28;20141;-74
2023/09/24 12:24:10;;;;;;;1.98;1.52;;;;;;;;;;5102111;28;20060;-74
2023/09/24 12:26:41;;;;;;;3.70;1.40;;;;;;;;;;5102478;28;20062;-78
2023/09/24 12:29:11;;;;;;;3.47;1.70;;;;;;;;;;5102153;28;20422;-74
2023/09/24 12:31:41;;;;;;;2.88;1.13;;;;;;;;;;5102151;28;20036;-74
2023/09/24 12:34:12;;;;;;;2.05;1.20;;;;;;;;;;5083050;28;20066;-75
2023/09/24 12:36:42;;;;;;;1.80;1.15;;;;;;;;;;5102524;28;20063;-74
2023/09/24 12:39:12;;;;;;;3.95;1.55;;;;;;;;;;5083245;28;20394;-74
2023/09/24 12:41:42;;;;;;;2.08;1.10;;;;;;;;;;5082846;28;20512;-74
2023/09/24 12:44:13;;;;;;;2.58;1.13;;;;;;;;;;5102324;28;20044;-74
2023/09/24 12:46:45;;;;;;;1.33;0.98;;;;;;;;;;5101925;28;20048;-74
2023/09/24 12:49:16;;;;;;;4.72;1.40;;;;;;;;;;5101688;28;20059;-81
2023/09/24 12:51:46;;;;;;;1.20;0.80;;;;;;;;;;5102384;28;20410;-78
2023/09/24 12:54:16;;;;;;;1.17;0.88;;;;;;;;;;5102552;28;20605;-81
2023/09/24 12:56:48;;;;;;;2.03;1.00;;;;;;;;;;5102285;28;20039;-82
2023/09/24 12:59:18;;;;;;;1.75;0.82;;;;;;;;;;5084326;28;20043;-74
2023/09/24 13:01:48;;;;;;;3.17;0.82;;;;;;;;;;5102249;28;20510;-74
2023/09/24 13:04:18;;;;;;;2.40;0.93;;;;;;;;;;5100738;28;20399;-74
2023/09/24 13:06:52;;;;;;;1.40;0.88;;;;;;;;;;5101898;28;20052;-74
2023/09/24 13:09:23;;;;;;;1.10;0.90;;;;;;;;;;5101657;28;20059;-74
2023/09/24 13:11:54;;;;;;;1.15;0.85;;;;;;;;;;5100986;28;20047;-74
2023/09/24 13:14:24;;;;;;;1.25;1.05;;;;;;;;;;5082595;28;20058;-73
2023/09/24 13:16:55;;;;;;;3.90;1.17;;;;;;;;;;5101749;28;20071;-73
2023/09/24 13:19:26;;;;;;;4.82;1.40;;;;;;;;;;5101931;28;20054;-75
2023/09/24 13:21:57;;;;;;;10.38;1.83;;;;;;;;;;5102174;28;20051;-76
2023/09/24 13:24:27;;;;;;;6.72;1.90;;;;;;;;;;5105179;28;20060;-75
2023/09/24 13:26:58;;;;;;;4.72;1.27;;;;;;;;;;5105989;28;20497;-76
2023/09/24 13:29:28;;;;;;;7.47;1.33;;;;;;;;;;5106038;28;20406;-75
2023/09/24 13:31:58;;;;;;;8.52;1.48;;;;;;;;;;5106275;28;20398;-75
2023/09/24 13:34:32;;;;;;;2.67;0.55;;;;;;;;;;5105817;28;20058;-75
2023/09/24 13:37:02;;;;;;;3.65;1.17;;;;;;;;;;5105244;28;20414;-74
2023/09/24 13:39:33;;;;;;;2.10;1.13;;;;;;;;;;5106358;28;20051;-74
2023/09/24 13:42:03;;;;;;;1.75;1.00;;;;;;;;;;5103473;28;20368;-73
2023/09/24 13:44:34;;;;;;;8.50;1.85;;;;;;;;;;5104869;28;20048;-75
2023/09/24 13:47:05;;;;;;;5.10;1.90;;;;;;;;;;5105109;28;20052;-75
2023/09/24 13:49:36;;;;;;;4.80;1.40;;;;;;;;;;5104247;28;20059;-77
2023/09/24 13:52:07;;;;;;;2.28;1.33;;;;;;;;;;5104971;28;20043;-76
2023/09/24 13:54:38;;;;;;;4.20;1.23;;;;;;;;;;5104361;28;20047;-75
2023/09/24 13:57:09;;;;;;;2.25;1.55;;;;;;;;;;5104256;28;20054;-75
2023/09/24 13:59:39;;;;;;;1.95;1.30;;;;;;;;;;5105028;28;20048;-76
2023/09/24 14:02:09;;;;;;;2.58;1.90;;;;;;;;;;5105379;28;20044;-75
2023/09/24 14:04:39;;;;;;;3.25;2.00;;;;;;;;;;5105458;28;20077;-75
2023/09/24 14:07:12;;;;;;;4.75;2.00;;;;;;;;;;5105257;28;20055;-75
2023/09/24 14:12:32;;;;;;;2.50;1.90;;;;;;;;;;5105106;28;20609;-75
2023/09/24 14:15:04;;;;;;;3.28;2.20;;;;;;;;;;5087356;28;20043;-75
2023/09/24 14:17:34;;;;;;;5.82;4.13;;;;;;;;;;5104485;28;20048;-74
2023/09/24 14:20:05;;;;;;;3.47;2.50;;;;;;;;;;5104479;28;20055;-77
2023/09/24 14:22:37;;;;;;;1.15;0.80;;;;;;;;;;5104831;28;20039;-75
2023/09/24 14:25:08;;;;;;;1.60;1.13;;;;;;;;;;5104894;28;20053;-75
2023/09/24 14:27:38;;;;;;;2.78;1.60;;;;;;;;;;5101928;28;20450;-75
2023/09/24 14:30:09;;;;;;;3.05;1.50;;;;;;;;;;5103777;28;20453;-75
2023/09/24 14:32:39;;;;;;;3.65;2.00;;;;;;;;;;5103794;28;20044;-76
2023/09/24 14:35:10;;;;;;;3.80;1.67;;;;;;;;;;5104215;28;20035;-75
2023/09/24 14:37:40;;;;;;;7.03;1.60;;;;;;;;;;5104825;28;20054;-74
2023/09/24 14:40:11;;;;;;;2.42;1.52;;;;;;;;;;5104363;28;20410;-75
2023/09/24 14:42:43;;;;;;;3.95;1.13;;;;;;;;;;5103808;28;20058;-75
2023/09/24 14:45:14;;;;;;;0.80;0.63;;;;;;;;;;5104075;28;20066;-78
2023/09/24 14:47:44;;;;;;;2.95;0.80;;;;;;;;;;5104301;28;20051;-75
2023/09/24 14:50:15;;;;;;;1.98;1.05;;;;;;;;;;5103634;28;20047;-75
2023/09/24 14:52:46;;;;;;;3.55;2.00;;;;;;;;;;5104232;28;20506;-75
2023/09/24 14:55:16;;;;;;;4.07;2.00;;;;;;;;;;5102174;28;20399;-73
2023/09/24 14:57:48;;;;;;;1.45;0.90;;;;;;;;;;5103673;28;20044;-72
2023/09/24 15:00:18;;;;;;;7.03;1.20;;;;;;;;;;5103523;28;20048;-73
2023/09/24 15:02:55;;;;;;;2.25;1.83;;;;;;;;;;5104029;28;20044;-73
2023/09/24 15:05:27;;;;;;;2.25;1.88;;;;;;;;;;5103149;28;20047;-73
2023/09/24 15:07:57;;;;;;;1.80;1.08;;;;;;;;;;5103260;28;20410;-73
2023/09/24 15:10:27;;;;;;;1.80;1.40;;;;;;;;;;5103736;28;20486;-73
2023/09/24 15:12:57;;;;;;;6.25;3.85;;;;;;;;;;5103729;28;20418;-73